createdAt,value
2019-01-25T00:02:20.629Z,15.83
2019-01-25T00:04:48.852Z,23.73
2019-01-25T00:07:17.088Z,18.40
2019-01-25T00:09:45.311Z,19.30
2019-01-25T00:12:13.534Z,18.90
2019-01-25T00:14:41.740Z,21.40
2019-01-25T00:17:10.043Z,17.30
2019-01-25T00:19:38.394Z,16.43
2019-01-25T00:22:06.604Z,16.03
2019-01-25T00:24:34.828Z,17.27
2019-01-25T00:27:03.042Z,19.43
2019-01-25T00:29:31.270Z,30.27
2019-01-25T00:31:59.492Z,31.30
2019-01-25T00:34:27.712Z,43.90
2019-01-25T00:36:55.942Z,38.50
2019-01-25T00:39:24.154Z,32.27
2019-01-25T00:41:52.394Z,29.53
2019-01-25T00:44:20.593Z,27.20
2019-01-25T00:46:48.814Z,21.90
2019-01-25T00:49:17.043Z,26.37
2019-01-25T00:51:45.257Z,19.80
2019-01-25T00:54:13.512Z,20.40
2019-01-25T00:56:41.736Z,18.87
2019-01-25T00:59:09.970Z,17.40
2019-01-25T01:01:38.200Z,21.40
2019-01-25T01:04:06.419Z,16.63
2019-01-25T01:06:34.810Z,18.43
2019-01-25T01:09:03.886Z,16.07
2019-01-25T01:11:32.089Z,16.47
2019-01-25T01:14:00.314Z,14.70
2019-01-25T01:16:28.520Z,14.97
2019-01-25T01:18:56.849Z,17.37
2019-01-25T01:21:25.080Z,16.87
2019-01-25T01:23:53.283Z,17.83
2019-01-25T01:26:21.515Z,16.47
2019-01-25T01:28:49.740Z,15.63
2019-01-25T01:31:17.976Z,14.20
2019-01-25T01:33:46.204Z,14.93
2019-01-25T01:36:14.426Z,13.30
2019-01-25T01:38:42.658Z,13.97
2019-01-25T01:41:10.860Z,15.70
2019-01-25T01:43:39.091Z,14.10
2019-01-25T01:46:07.297Z,13.83
2019-01-25T01:48:35.536Z,12.80
2019-01-25T01:51:03.776Z,14.07
2019-01-25T01:53:31.988Z,13.30
2019-01-25T01:56:00.198Z,13.53
2019-01-25T01:58:28.611Z,12.70
2019-01-25T02:00:56.835Z,14.10
2019-01-25T02:03:25.024Z,13.50
2019-01-25T02:05:53.260Z,12.67
2019-01-25T02:08:21.460Z,13.77
2019-01-25T02:10:49.694Z,13.43
2019-01-25T02:13:17.908Z,12.13
2019-01-25T02:15:46.118Z,15.70
2019-01-25T02:18:14.371Z,13.83
2019-01-25T02:20:42.565Z,12.60
2019-01-25T02:23:10.793Z,13.30
2019-01-25T02:25:39.004Z,13.07
2019-01-25T02:28:07.253Z,11.57
2019-01-25T02:30:35.455Z,12.53
2019-01-25T02:33:03.701Z,11.93
2019-01-25T02:35:31.901Z,11.13
2019-01-25T02:38:00.107Z,11.47
2019-01-25T02:40:28.324Z,11.37
2019-01-25T02:42:56.535Z,10.73
2019-01-25T02:45:24.763Z,13.60
2019-01-25T02:47:52.976Z,12.07
2019-01-25T02:50:21.199Z,10.97
2019-01-25T02:52:49.412Z,12.17
2019-01-25T02:55:17.918Z,11.73
2019-01-25T02:57:46.236Z,11.57
2019-01-25T03:00:24.644Z,12.20
2019-01-25T03:02:53.401Z,10.20
2019-01-25T03:05:22.871Z,11.67
2019-01-25T03:07:51.076Z,13.23
2019-01-25T03:10:28.198Z,11.90
2019-01-25T03:12:50.803Z,11.00
2019-01-25T03:15:23.709Z,11.83
2019-01-25T03:17:51.919Z,11.07
2019-01-25T03:20:20.236Z,12.50
2019-01-25T03:22:48.465Z,11.23
2019-01-25T03:25:18.909Z,11.67
2019-01-25T03:27:47.984Z,10.33
2019-01-25T03:30:21.147Z,11.10
2019-01-25T03:32:49.371Z,11.07
2019-01-25T03:35:19.616Z,11.03
2019-01-25T03:37:48.014Z,10.20
2019-01-25T03:40:21.115Z,10.97
2019-01-25T03:42:49.328Z,10.67
2019-01-25T03:45:17.805Z,11.70
2019-01-25T03:47:46.013Z,11.00
2019-01-25T03:50:19.923Z,10.70
2019-01-25T03:52:48.126Z,9.90
2019-01-25T03:55:16.361Z,11.23
2019-01-25T03:57:44.562Z,11.23
2019-01-25T04:00:18.092Z,10.33
2019-01-25T04:02:46.317Z,11.70
2019-01-25T04:05:15.763Z,10.53
2019-01-25T04:07:44.246Z,11.50
2019-01-25T04:10:15.120Z,10.13
2019-01-25T04:12:43.322Z,9.77
2019-01-25T04:15:17.049Z,10.97
2019-01-25T04:17:45.250Z,11.23
2019-01-25T04:20:15.792Z,10.93
2019-01-25T04:22:44.026Z,10.13
2019-01-25T04:25:14.864Z,10.47
2019-01-25T04:27:43.088Z,9.70
2019-01-25T04:30:19.632Z,9.63
2019-01-25T04:32:47.842Z,10.63
2019-01-25T04:35:16.055Z,12.00
2019-01-25T04:37:44.277Z,10.57
2019-01-25T04:40:15.216Z,10.80
2019-01-25T04:42:43.439Z,10.10
2019-01-25T04:45:13.598Z,10.03
2019-01-25T04:47:41.852Z,10.60
2019-01-25T04:50:19.373Z,11.33
2019-01-25T04:52:47.698Z,9.93
2019-01-25T04:55:24.345Z,11.03
2019-01-25T04:57:52.611Z,12.00
2019-01-25T05:00:22.848Z,10.03
2019-01-25T05:02:56.528Z,11.03
2019-01-25T05:05:24.768Z,12.03
2019-01-25T05:07:59.181Z,10.83
2019-01-25T05:10:27.379Z,11.00
2019-01-25T05:12:55.602Z,11.47
2019-01-25T05:15:23.834Z,10.77
2019-01-25T05:17:54.577Z,12.37
2019-01-25T05:20:22.755Z,12.87
2019-01-25T05:22:56.549Z,13.20
2019-01-25T05:25:26.193Z,13.90
2019-01-25T05:27:54.430Z,13.27
2019-01-25T05:30:22.939Z,14.57
2019-01-25T05:32:51.144Z,15.23
2019-01-25T05:35:19.370Z,17.20
2019-01-25T05:37:47.643Z,19.33
2019-01-25T05:40:21.818Z,16.37
2019-01-25T05:42:50.041Z,15.67
2019-01-25T05:45:18.334Z,16.33
2019-01-25T05:47:46.544Z,16.00
2019-01-25T05:50:15.710Z,16.63
2019-01-25T05:52:43.918Z,16.57
2019-01-25T05:55:22.648Z,14.63
2019-01-25T05:57:52.494Z,15.73
2019-01-25T06:00:28.597Z,16.00
2019-01-25T06:02:57.608Z,15.07
2019-01-25T06:05:25.819Z,15.67
2019-01-25T06:07:54.065Z,16.63
2019-01-25T06:10:22.279Z,15.50
2019-01-25T06:12:54.987Z,13.23
2019-01-25T06:15:25.045Z,13.57
2019-01-25T06:17:53.287Z,13.77
2019-01-25T06:20:21.508Z,14.23
2019-01-25T06:22:49.760Z,13.60
2019-01-25T06:25:18.036Z,14.03
2019-01-25T06:27:46.261Z,13.77
2019-01-25T06:30:16.826Z,13.33
2019-01-25T06:32:45.126Z,12.20
2019-01-25T06:35:13.364Z,11.80
2019-01-25T06:37:41.585Z,13.93
2019-01-25T06:40:11.661Z,14.67
2019-01-25T06:42:39.868Z,12.37
2019-01-25T06:45:09.434Z,12.87
2019-01-25T06:47:37.634Z,11.23
2019-01-25T06:50:08.363Z,14.03
2019-01-25T06:52:36.597Z,11.50
2019-01-25T06:55:06.660Z,11.40
2019-01-25T06:57:36.542Z,13.20
2019-01-25T07:00:08.001Z,11.60
2019-01-25T07:02:36.211Z,12.47
2019-01-25T07:05:05.673Z,13.20
2019-01-25T07:07:34.674Z,13.17
2019-01-25T07:10:02.884Z,10.90
2019-01-25T07:12:31.109Z,11.60
2019-01-25T07:14:59.310Z,10.90
2019-01-25T07:17:27.508Z,12.10
2019-01-25T07:19:55.763Z,14.43
2019-01-25T07:22:23.997Z,11.17
2019-01-25T07:24:57.187Z,14.83
2019-01-25T07:27:22.175Z,11.87
2019-01-25T07:29:50.477Z,12.13
2019-01-25T07:32:18.666Z,12.97
2019-01-25T07:34:46.898Z,11.00
2019-01-25T07:37:15.103Z,12.20
2019-01-25T07:39:43.313Z,10.33
2019-01-25T07:42:11.511Z,12.13
2019-01-25T07:44:39.723Z,12.43
2019-01-25T07:47:07.976Z,13.20
2019-01-25T07:49:36.183Z,10.93
2019-01-25T07:52:04.605Z,10.90
2019-01-25T07:54:32.860Z,11.53
2019-01-25T07:57:01.175Z,12.07
2019-01-25T07:59:29.427Z,11.93
2019-01-25T08:01:57.631Z,11.97
2019-01-25T08:04:25.918Z,11.97
2019-01-25T08:06:54.087Z,11.77
2019-01-25T08:09:22.321Z,14.00
2019-01-25T08:11:50.536Z,11.23
2019-01-25T08:14:18.753Z,12.47
2019-01-25T08:16:46.979Z,10.70
2019-01-25T08:19:15.181Z,11.20
2019-01-25T08:21:43.416Z,10.50
2019-01-25T08:24:11.639Z,11.33
2019-01-25T08:26:39.843Z,12.40
2019-01-25T08:29:08.045Z,14.83
2019-01-25T08:31:36.256Z,10.40
2019-01-25T08:34:04.538Z,10.83
2019-01-25T08:36:32.767Z,11.87
2019-01-25T08:39:00.959Z,11.77
2019-01-25T08:41:29.175Z,10.83
2019-01-25T08:43:57.381Z,12.23
2019-01-25T08:46:25.624Z,11.10
2019-01-25T08:48:53.853Z,11.07
2019-01-25T08:51:22.043Z,10.23
2019-01-25T08:53:50.265Z,10.57
2019-01-25T08:56:18.493Z,10.13
2019-01-25T08:58:46.697Z,11.43
2019-01-25T09:01:14.917Z,10.77
2019-01-25T09:03:43.111Z,9.97
2019-01-25T09:06:11.391Z,11.20
2019-01-25T09:08:39.795Z,10.87
2019-01-25T09:11:08.007Z,11.17
2019-01-25T09:13:36.220Z,10.87
2019-01-25T09:16:04.445Z,12.13
2019-01-25T09:18:32.694Z,9.67
2019-01-25T09:21:00.922Z,10.00
2019-01-25T09:23:29.124Z,13.37
2019-01-25T09:26:01.022Z,11.37
2019-01-25T09:28:27.322Z,14.57
2019-01-25T09:30:55.554Z,11.60
2019-01-25T09:33:23.771Z,11.80
2019-01-25T09:35:52.006Z,11.60
2019-01-25T09:38:20.216Z,12.83
2019-01-25T09:40:48.438Z,11.37
2019-01-25T09:43:16.688Z,14.17
2019-01-25T09:45:44.898Z,17.57
2019-01-25T09:48:13.146Z,18.00
2019-01-25T09:50:41.346Z,16.83
2019-01-25T09:53:09.552Z,10.80
2019-01-25T09:55:37.763Z,12.47
2019-01-25T09:58:09.452Z,12.37
2019-01-25T10:00:43.494Z,14.10
2019-01-25T10:03:11.690Z,14.90
2019-01-25T10:05:39.914Z,13.97
2019-01-25T10:08:08.138Z,12.60
2019-01-25T10:10:36.336Z,13.17
2019-01-25T10:13:04.568Z,13.27
2019-01-25T10:15:32.794Z,11.93
2019-01-25T10:18:01.006Z,13.23
2019-01-25T10:20:29.291Z,11.63
2019-01-25T10:22:57.514Z,10.80
2019-01-25T10:25:25.752Z,12.30
2019-01-25T10:27:53.980Z,14.67
2019-01-25T10:30:29.218Z,13.80
2019-01-25T10:32:57.453Z,17.27
2019-01-25T10:35:25.672Z,20.57
2019-01-25T10:37:53.972Z,13.07
2019-01-25T10:40:23.122Z,12.63
2019-01-25T10:42:53.213Z,13.60
2019-01-25T10:45:39.531Z,14.58
2019-01-25T10:48:08.484Z,14.57
2019-01-25T10:50:36.739Z,12.63
2019-01-25T10:53:05.582Z,14.10
2019-01-25T10:55:33.782Z,15.20
2019-01-25T10:58:02.113Z,13.20
2019-01-25T11:00:30.351Z,12.53
2019-01-25T11:02:58.699Z,13.17
2019-01-25T11:05:28.514Z,16.97
2019-01-25T11:07:56.744Z,14.33
2019-01-25T11:10:24.969Z,15.50
2019-01-25T11:13:00.444Z,12.27
2019-01-25T11:15:24.270Z,13.53
2019-01-25T11:17:52.499Z,13.07
2019-01-25T11:20:22.654Z,12.93
2019-01-25T11:22:50.898Z,17.23
2019-01-25T11:25:22.104Z,17.10
2019-01-25T11:27:50.343Z,15.07
2019-01-25T11:30:18.553Z,17.63
2019-01-25T11:32:46.783Z,14.23
2019-01-25T11:35:15.032Z,14.40
2019-01-25T11:37:43.294Z,14.80
2019-01-25T11:40:23.485Z,15.53
2019-01-25T11:42:51.753Z,16.33
2019-01-25T11:45:19.976Z,15.47
2019-01-25T11:47:48.194Z,15.67
2019-01-25T11:50:18.846Z,13.97
2019-01-25T11:52:47.056Z,14.20
2019-01-25T11:55:16.830Z,14.77
2019-01-25T11:57:45.062Z,12.88
2019-01-25T12:00:21.872Z,14.25
2019-01-25T12:02:50.253Z,12.10
2019-01-25T12:05:23.218Z,16.27
2019-01-25T12:07:51.478Z,12.67
2019-01-25T12:10:28.636Z,13.07
2019-01-25T12:12:56.854Z,12.63
2019-01-25T12:15:25.056Z,11.87
2019-01-25T12:17:53.284Z,14.43
2019-01-25T12:20:30.125Z,12.10
2019-01-25T12:22:58.374Z,12.03
2019-01-25T12:25:26.568Z,12.20
2019-01-25T12:27:54.963Z,11.67
2019-01-25T12:30:25.014Z,16.03
2019-01-25T12:32:53.271Z,12.10
2019-01-25T12:35:21.552Z,15.33
2019-01-25T12:37:49.769Z,10.87
2019-01-25T12:40:19.649Z,12.07
2019-01-25T12:42:47.930Z,12.37
2019-01-25T12:45:21.628Z,10.77
2019-01-25T12:47:49.874Z,9.27
2019-01-25T12:50:21.313Z,11.93
2019-01-25T12:52:49.513Z,10.60
2019-01-25T12:55:17.747Z,11.73
2019-01-25T12:57:46.026Z,11.47
2019-01-25T13:00:16.733Z,10.90
2019-01-25T13:02:44.972Z,11.87
2019-01-25T13:05:15.807Z,9.37
2019-01-25T13:07:44.061Z,10.27
2019-01-25T13:10:15.206Z,9.20
2019-01-25T13:12:43.423Z,9.53
2019-01-25T13:15:12.876Z,8.13
2019-01-25T13:17:41.099Z,11.17
2019-01-25T13:20:15.503Z,9.03
2019-01-25T13:22:43.744Z,10.93
2019-01-25T13:25:11.958Z,11.00
2019-01-25T13:27:40.154Z,9.20
2019-01-25T13:30:17.104Z,8.63
2019-01-25T13:32:45.330Z,8.97
2019-01-25T16:20:18.687Z,17.55
2019-01-25T16:22:47.969Z,23.17
2019-01-25T16:25:24.407Z,22.80
2019-01-25T16:27:52.630Z,22.10
2019-01-25T16:30:25.907Z,23.23
2019-01-25T16:32:54.137Z,16.50
2019-01-25T16:35:22.341Z,16.30
2019-01-25T16:37:50.585Z,15.88
2019-01-25T16:40:21.531Z,23.62
2019-01-25T16:42:49.759Z,16.40
2019-01-25T16:45:33.405Z,17.67
2019-01-25T16:48:01.621Z,22.17
2019-01-25T16:50:29.843Z,13.00
2019-01-25T16:52:58.056Z,14.37
2019-01-25T16:55:26.348Z,18.87
2019-01-25T16:57:54.588Z,14.00
2019-01-25T17:00:25.146Z,12.23
2019-01-25T17:02:53.387Z,12.70
2019-01-25T17:05:21.581Z,12.63
2019-01-25T17:07:49.801Z,10.30
2019-01-25T17:10:18.012Z,14.53
2019-01-25T17:12:46.250Z,12.37
2019-01-25T17:15:15.823Z,13.53
2019-01-25T17:17:44.056Z,13.33
2019-01-25T17:20:19.150Z,13.37
2019-01-25T17:22:45.470Z,12.70
2019-01-25T17:25:14.552Z,13.67
2019-01-25T17:27:42.816Z,11.83
2019-01-25T17:30:26.371Z,13.53
2019-01-25T17:32:55.919Z,13.97
2019-01-25T17:35:24.276Z,13.07
2019-01-25T17:37:52.477Z,14.20
2019-01-25T17:40:46.140Z,12.07
2019-01-25T17:43:08.849Z,14.23
2019-01-25T17:45:37.074Z,17.17
2019-01-25T17:48:06.033Z,23.90
2019-01-25T17:50:34.248Z,33.85
2019-01-25T17:53:02.497Z,39.67
2019-01-25T17:55:30.721Z,32.27
2019-01-25T17:57:58.927Z,28.50
2019-01-25T18:00:31.620Z,28.10
2019-01-25T18:02:59.917Z,33.63
2019-01-25T18:05:28.152Z,31.00
2019-01-25T18:07:56.388Z,29.30
2019-01-25T18:10:25.626Z,21.30
2019-01-25T18:12:55.701Z,27.73
2019-01-25T18:15:24.071Z,26.67
2019-01-25T18:17:52.310Z,24.43
2019-01-25T18:20:24.520Z,44.60
2019-01-25T18:22:53.136Z,37.83
2019-01-25T18:25:27.440Z,32.80
2019-01-25T18:28:01.581Z,39.70
2019-01-25T18:30:38.800Z,34.50
2019-01-25T18:33:07.030Z,46.80
2019-01-25T18:35:35.243Z,31.57
2019-01-25T18:38:03.552Z,29.87
2019-01-25T18:40:31.803Z,39.07
2019-01-25T18:43:00.031Z,32.10
2019-01-25T18:45:28.263Z,39.43
2019-01-25T18:47:56.505Z,42.23
2019-01-25T18:50:24.733Z,42.93
2019-01-25T18:52:52.946Z,47.60
2019-01-25T18:55:23.567Z,40.20
2019-01-25T18:57:51.816Z,40.23
2019-01-25T19:00:21.465Z,39.37
2019-01-25T19:02:49.701Z,40.38
2019-01-25T19:05:17.988Z,45.40
2019-01-25T19:07:46.209Z,51.00
2019-01-25T19:10:20.138Z,57.87
2019-01-25T19:12:48.347Z,47.27
2019-01-25T19:15:19.504Z,55.60
2019-01-25T19:17:47.730Z,63.03
2019-01-25T19:20:16.203Z,81.93
2019-01-25T19:22:44.417Z,74.67
2019-01-25T19:25:12.715Z,80.77
2019-01-25T19:27:40.933Z,79.50
2019-01-25T19:30:15.378Z,86.53
2019-01-25T19:32:43.599Z,85.17
2019-01-25T19:35:13.151Z,86.10
2019-01-25T19:37:41.363Z,85.57
2019-01-25T19:40:12.888Z,88.50
2019-01-25T19:42:41.124Z,84.80
2019-01-25T19:45:12.030Z,94.10
2019-01-25T19:47:40.404Z,100.07
2019-01-25T19:50:16.694Z,99.10
2019-01-25T19:52:44.923Z,114.23
2019-01-25T19:55:15.975Z,131.57
2019-01-25T19:57:44.324Z,92.13
2019-01-25T20:00:27.574Z,142.43
2019-01-25T20:02:55.830Z,116.17
2019-01-25T20:05:29.381Z,113.00
2019-01-25T20:07:57.621Z,134.47
2019-01-25T20:10:25.859Z,150.90
2019-01-25T20:12:54.085Z,152.30
2019-01-25T20:15:23.847Z,72.10
2019-01-25T20:17:52.085Z,58.03
2019-01-25T20:20:23.205Z,57.87
2019-01-25T20:22:51.419Z,66.43
2019-01-25T20:25:19.795Z,57.07
2019-01-25T20:27:48.043Z,82.45
2019-01-25T20:30:31.021Z,70.13
2019-01-25T20:32:59.903Z,70.73
2019-01-25T20:35:30.479Z,69.50
2019-01-25T20:37:58.763Z,72.67
2019-01-25T20:40:27.018Z,56.93
2019-01-25T20:42:55.263Z,63.87
2019-01-25T20:45:29.120Z,66.60
2019-01-25T20:47:57.371Z,71.50
2019-01-25T20:50:28.069Z,60.77
2019-01-25T20:52:56.280Z,74.93
2019-01-25T20:55:25.168Z,80.67
2019-01-25T20:57:53.740Z,76.57
2019-01-25T21:00:24.289Z,73.33
2019-01-25T21:02:52.525Z,74.37
2019-01-25T21:05:20.822Z,77.37
2019-01-25T21:07:49.032Z,80.33
2019-01-25T21:10:25.295Z,84.60
2019-01-25T21:12:53.867Z,83.03
2019-01-25T21:15:23.916Z,87.87
2019-01-25T21:17:52.154Z,82.27
2019-01-25T21:20:26.264Z,77.47
2019-01-25T21:22:54.494Z,77.87
2019-01-25T21:25:22.693Z,78.37
2019-01-25T21:27:51.007Z,91.67
2019-01-25T21:30:24.859Z,86.30
2019-01-25T21:32:53.078Z,83.63
2019-01-25T21:35:21.314Z,87.57
2019-01-25T21:37:49.549Z,81.97
2019-01-25T21:40:23.169Z,85.37
2019-01-25T21:42:51.385Z,85.07
2019-01-25T21:45:24.386Z,77.70
2019-01-25T21:47:52.695Z,74.93
2019-01-25T21:50:29.325Z,75.43
2019-01-25T21:52:57.544Z,74.73
2019-01-25T21:55:25.747Z,75.73
2019-01-25T21:57:53.992Z,68.70
2019-01-25T22:00:24.651Z,76.60
2019-01-25T22:02:52.875Z,70.10
2019-01-25T22:05:21.366Z,71.00
2019-01-25T22:07:49.598Z,66.73
2019-01-25T22:10:23.532Z,67.10
2019-01-25T22:12:51.772Z,69.20
2019-01-25T22:15:20.141Z,65.23
2019-01-25T22:17:48.523Z,75.23
2019-01-25T22:20:25.576Z,69.57
2019-01-25T22:22:53.794Z,69.73
2019-01-25T22:25:22.089Z,63.67
2019-01-25T22:27:51.572Z,60.30
2019-01-25T22:30:24.826Z,56.63
2019-01-25T22:32:53.056Z,60.03
2019-01-25T22:35:21.296Z,60.43
2019-01-25T22:37:49.485Z,61.07
2019-01-25T22:40:24.387Z,55.77
2019-01-25T22:42:52.738Z,52.03
2019-01-25T22:45:25.801Z,55.60
2019-01-25T22:47:54.052Z,55.57
2019-01-25T22:50:24.394Z,54.57
2019-01-25T22:52:52.598Z,56.67
2019-01-25T22:55:21.973Z,57.57
2019-01-25T22:57:50.511Z,50.43
2019-01-25T23:00:55.127Z,53.87
2019-01-25T23:03:29.808Z,49.27
2019-01-25T23:06:20.536Z,50.80
2019-01-25T23:08:48.759Z,49.07
2019-01-25T23:11:16.973Z,50.50
2019-01-25T23:13:45.171Z,49.10
2019-01-25T23:16:13.412Z,48.47
2019-01-25T23:18:41.614Z,44.73
2019-01-25T23:21:09.861Z,44.03
2019-01-25T23:23:38.067Z,48.00
2019-01-25T23:26:06.290Z,43.53
2019-01-25T23:28:34.522Z,43.70
2019-01-25T23:31:02.729Z,41.10
2019-01-25T23:33:30.973Z,39.67
2019-01-25T23:35:59.224Z,43.83
2019-01-25T23:38:27.486Z,46.00
2019-01-25T23:40:55.709Z,42.07
2019-01-25T23:43:23.949Z,39.93
2019-01-25T23:45:52.180Z,42.03
2019-01-25T23:48:20.386Z,37.73
2019-01-25T23:50:48.628Z,36.70
2019-01-25T23:53:16.842Z,36.70
2019-01-25T23:55:45.063Z,36.33
2019-01-25T23:58:13.278Z,40.20
